createdAt,value
2023-05-05T00:00:13.311Z,18.00
2023-05-05T00:02:40.695Z,18.00
2023-05-05T00:05:08.041Z,18.00
2023-05-05T00:07:34.843Z,18.00
2023-05-05T00:10:01.922Z,18.00
2023-05-05T00:12:29.121Z,18.00
2023-05-05T00:14:56.236Z,18.00
2023-05-05T00:17:23.270Z,17.90
2023-05-05T00:19:50.268Z,17.90
2023-05-05T00:22:17.191Z,17.80
2023-05-05T00:24:44.051Z,17.80
2023-05-05T00:27:11.050Z,17.70
2023-05-05T00:29:37.939Z,17.70
2023-05-05T00:32:04.956Z,17.70
2023-05-05T00:34:32.250Z,17.60
2023-05-05T00:36:59.662Z,17.60
2023-05-05T00:39:26.604Z,17.60
2023-05-05T00:41:53.608Z,17.60
2023-05-05T00:44:41.744Z,17.50
2023-05-05T00:47:09.941Z,17.50
2023-05-05T00:49:38.152Z,17.50
2023-05-05T00:52:07.332Z,17.50
2023-05-05T00:54:35.730Z,17.60
2023-05-05T00:57:03.543Z,17.60
2023-05-05T00:59:32.806Z,17.60
2023-05-05T01:02:00.058Z,17.60
2023-05-05T01:04:27.951Z,17.70
2023-05-05T01:07:15.287Z,17.70
2023-05-05T01:10:19.649Z,17.70
2023-05-05T01:13:05.211Z,17.70
2023-05-05T01:15:39.264Z,17.60
2023-05-05T01:18:38.536Z,17.60
2023-05-05T01:21:05.420Z,17.60
2023-05-05T01:24:06.818Z,17.60
2023-05-05T01:26:33.572Z,17.60
2023-05-05T01:29:12.022Z,17.60
2023-05-05T01:31:57.644Z,17.70
2023-05-05T01:34:37.125Z,17.70
2023-05-05T01:37:55.620Z,17.70
2023-05-05T01:40:27.587Z,17.60
2023-05-05T01:42:56.169Z,17.50
2023-05-05T01:45:28.446Z,17.50
2023-05-05T01:47:57.299Z,17.50
2023-05-05T01:50:28.218Z,17.40
2023-05-05T01:52:57.756Z,17.10
2023-05-05T01:55:26.295Z,16.80
2023-05-05T01:57:56.010Z,16.60
2023-05-05T02:00:25.392Z,16.60
2023-05-05T02:02:56.112Z,16.60
2023-05-05T02:05:24.696Z,16.60
2023-05-05T02:07:56.400Z,16.50
2023-05-05T02:10:23.738Z,16.50
2023-05-05T02:12:53.291Z,16.50
2023-05-05T02:15:22.899Z,16.40
2023-05-05T02:17:52.851Z,16.40
2023-05-05T02:20:20.556Z,16.40
2023-05-05T02:22:48.804Z,16.30
2023-05-05T02:25:17.662Z,16.30
2023-05-05T02:27:48.655Z,16.20
2023-05-05T02:30:19.913Z,16.20
2023-05-05T02:33:05.132Z,16.10
2023-05-05T02:35:38.017Z,16.10
2023-05-05T02:38:13.172Z,16.00
2023-05-05T02:40:43.261Z,16.00
2023-05-05T02:43:19.632Z,15.90
2023-05-05T02:45:47.249Z,15.80
2023-05-05T02:48:15.575Z,15.70
2023-05-05T02:50:42.952Z,15.70
2023-05-05T02:53:24.864Z,15.60
2023-05-05T02:56:05.726Z,15.60
2023-05-05T02:59:23.108Z,15.50
2023-05-05T03:02:05.940Z,15.40
2023-05-05T03:04:50.561Z,15.40
2023-05-05T03:07:26.267Z,15.30
2023-05-05T03:10:03.138Z,15.20
2023-05-05T03:12:39.790Z,15.20
2023-05-05T03:15:15.867Z,15.10
2023-05-05T03:17:43.816Z,15.00
2023-05-05T03:20:12.696Z,15.00
2023-05-05T03:22:42.510Z,15.00
2023-05-05T03:25:13.066Z,15.00
2023-05-05T03:27:41.086Z,15.00
2023-05-05T03:30:09.679Z,14.90
2023-05-05T03:32:43.780Z,14.90
2023-05-05T03:35:11.100Z,14.90
2023-05-05T03:37:38.171Z,14.90
2023-05-05T03:40:05.531Z,14.90
2023-05-05T03:42:32.624Z,14.80
2023-05-05T03:45:00.232Z,14.80
2023-05-05T03:47:27.756Z,14.80
2023-05-05T03:49:56.215Z,14.80
2023-05-05T03:52:23.456Z,14.80
2023-05-05T03:54:50.600Z,14.80
2023-05-05T03:57:18.573Z,14.70
2023-05-05T03:59:45.796Z,14.70
2023-05-05T04:02:13.045Z,14.60
2023-05-05T04:04:40.735Z,14.60
2023-05-05T04:07:07.854Z,14.60
2023-05-05T04:09:34.988Z,14.50
2023-05-05T04:12:03.104Z,14.50
2023-05-05T04:14:30.002Z,14.40
2023-05-05T04:16:57.965Z,14.40
2023-05-05T04:19:24.972Z,14.40
2023-05-05T04:21:52.063Z,14.40
2023-05-05T04:24:23.207Z,14.30
2023-05-05T04:26:50.286Z,14.30
2023-05-05T04:29:17.284Z,14.30
2023-05-05T04:31:48.473Z,14.30
2023-05-05T04:34:15.668Z,14.30
2023-05-05T04:36:43.198Z,14.30
2023-05-05T04:39:10.574Z,14.30
2023-05-05T04:41:37.569Z,14.30
2023-05-05T04:44:04.751Z,14.30
2023-05-05T04:46:31.897Z,14.30
2023-05-05T04:48:59.334Z,14.30
2023-05-05T04:51:27.728Z,14.30
2023-05-05T04:53:54.685Z,14.30
2023-05-05T04:56:21.447Z,14.30
2023-05-05T04:58:48.284Z,14.40
2023-05-05T05:01:15.850Z,14.40
2023-05-05T05:03:42.805Z,14.40
2023-05-05T05:06:09.730Z,14.50
2023-05-05T05:08:36.664Z,14.50
2023-05-05T05:11:03.624Z,14.50
2023-05-05T05:13:31.285Z,14.50
2023-05-05T05:15:58.420Z,14.60
2023-05-05T05:18:25.559Z,14.60
2023-05-05T05:20:53.094Z,14.60
2023-05-05T05:23:20.288Z,14.70
2023-05-05T05:25:47.889Z,14.70
2023-05-05T05:28:17.533Z,14.70
2023-05-05T05:30:54.649Z,14.70
2023-05-05T05:33:21.676Z,14.80
2023-05-05T05:35:49.133Z,14.80
2023-05-05T05:38:18.192Z,14.80
2023-05-05T05:40:45.909Z,14.80
2023-05-05T05:43:13.031Z,14.90
2023-05-05T05:45:40.650Z,14.90
2023-05-05T05:48:08.582Z,15.00
2023-05-05T05:50:36.492Z,15.00
2023-05-05T05:53:04.174Z,15.00
2023-05-05T05:55:31.436Z,15.00
2023-05-05T05:57:58.564Z,15.10
2023-05-05T06:00:26.198Z,15.10
2023-05-05T06:03:00.470Z,15.10
2023-05-05T06:05:31.409Z,15.10
2023-05-05T06:07:58.520Z,15.20
2023-05-05T06:10:28.335Z,15.20
2023-05-05T06:13:01.682Z,15.20
2023-05-05T06:15:29.584Z,15.30
2023-05-05T06:17:57.172Z,15.30
2023-05-05T06:20:25.001Z,15.30
2023-05-05T06:22:52.126Z,15.40
2023-05-05T06:25:19.272Z,15.40
2023-05-05T06:27:46.482Z,15.50
2023-05-05T06:30:14.741Z,15.50
2023-05-05T06:32:41.534Z,15.60
2023-05-05T06:35:09.021Z,15.60
2023-05-05T06:37:35.925Z,15.70
2023-05-05T06:40:02.648Z,15.80
2023-05-05T06:42:30.787Z,15.90
2023-05-05T06:44:58.285Z,16.00
2023-05-05T06:47:26.016Z,16.00
2023-05-05T06:49:52.903Z,16.10
2023-05-05T06:52:19.788Z,16.20
2023-05-05T06:54:46.707Z,16.20
2023-05-05T06:57:13.719Z,16.30
2023-05-05T06:59:40.955Z,16.50
2023-05-05T07:02:07.934Z,16.60
2023-05-05T07:04:34.919Z,16.80
2023-05-05T07:07:01.899Z,16.80
2023-05-05T07:09:28.809Z,16.90
2023-05-05T07:11:55.722Z,17.00
2023-05-05T07:14:24.350Z,17.20
2023-05-05T07:16:51.693Z,17.30
2023-05-05T07:19:18.532Z,17.50
2023-05-05T07:21:45.319Z,17.60
2023-05-05T07:24:12.140Z,17.70
2023-05-05T07:26:38.999Z,17.80
2023-05-05T07:29:07.078Z,18.00
2023-05-05T07:31:37.592Z,18.20
2023-05-05T07:34:05.961Z,18.30
2023-05-05T07:36:33.135Z,18.50
2023-05-05T07:39:00.722Z,18.50
2023-05-05T07:41:27.786Z,18.50
2023-05-05T07:43:54.641Z,18.60
2023-05-05T07:46:21.596Z,18.70
2023-05-05T07:48:48.390Z,18.70
2023-05-05T07:51:15.332Z,18.60
2023-05-05T07:53:42.258Z,18.60
2023-05-05T07:56:09.172Z,18.60
2023-05-05T07:58:36.005Z,18.70
2023-05-05T08:01:02.984Z,18.80
2023-05-05T08:03:29.909Z,19.00
2023-05-05T08:05:56.986Z,19.20
2023-05-05T08:08:25.072Z,19.40
2023-05-05T08:10:53.190Z,19.60
2023-05-05T08:13:20.501Z,19.90
2023-05-05T08:15:47.719Z,20.20
2023-05-05T08:18:15.030Z,20.30
2023-05-05T08:20:41.970Z,20.70
2023-05-05T08:23:08.961Z,21.20
2023-05-05T08:25:36.103Z,22.00
2023-05-05T08:28:03.125Z,23.00
2023-05-05T08:30:30.325Z,23.70
2023-05-05T08:32:57.428Z,24.00
2023-05-05T08:35:24.440Z,24.10
2023-05-05T08:37:55.970Z,23.60
2023-05-05T08:40:31.906Z,23.00
2023-05-05T08:42:59.712Z,22.40
2023-05-05T08:45:28.490Z,22.00
2023-05-05T08:47:57.490Z,21.80
2023-05-05T08:50:28.995Z,21.70
2023-05-05T08:53:19.896Z,21.80
2023-05-05T08:55:52.390Z,21.90
2023-05-05T08:58:19.691Z,21.90
2023-05-05T09:00:46.934Z,21.90
2023-05-05T09:03:14.555Z,21.80
2023-05-05T09:05:43.055Z,21.70
2023-05-05T09:08:13.294Z,21.80
2023-05-05T09:10:44.619Z,21.80
2023-05-05T09:15:52.175Z,21.80
2023-05-05T09:18:19.125Z,21.80
2023-05-05T09:20:46.420Z,21.90
2023-05-05T09:23:15.434Z,21.60
2023-05-05T09:25:45.895Z,21.30
2023-05-05T09:28:14.805Z,21.10
2023-05-05T09:30:42.959Z,20.70
2023-05-05T09:33:10.605Z,20.30
2023-05-05T09:35:54.632Z,19.90
2023-05-05T09:38:23.595Z,19.60
2023-05-05T09:40:52.117Z,19.30
2023-05-05T09:43:21.942Z,18.80
2023-05-05T09:45:49.843Z,18.30
2023-05-05T09:48:31.655Z,17.90
2023-05-05T09:50:59.505Z,17.60
2023-05-05T09:53:27.104Z,17.60
2023-05-05T09:55:58.296Z,17.60
2023-05-05T09:58:29.838Z,17.80
2023-05-05T10:00:58.397Z,17.90
2023-05-05T10:03:26.329Z,18.00
2023-05-05T10:05:55.914Z,18.20
2023-05-05T10:08:26.491Z,18.30
2023-05-05T10:11:07.192Z,18.20
2023-05-05T10:13:42.030Z,18.20
2023-05-05T10:16:11.134Z,18.20
2023-05-05T10:18:40.949Z,18.20
2023-05-05T10:21:08.891Z,18.10
2023-05-05T10:23:47.943Z,18.00
2023-05-05T10:26:16.970Z,17.80
2023-05-05T10:28:46.798Z,17.70
2023-05-05T10:31:26.034Z,17.60
2023-05-05T10:34:03.033Z,17.50
2023-05-05T10:36:31.837Z,17.20
2023-05-05T10:39:00.612Z,16.80
2023-05-05T10:41:28.681Z,16.50
2023-05-05T10:44:01.348Z,16.30
2023-05-05T10:46:30.074Z,16.20
2023-05-05T10:49:34.482Z,16.10
2023-05-05T10:52:33.114Z,16.20
2023-05-05T10:55:15.468Z,16.20
2023-05-05T10:57:45.884Z,16.10
2023-05-05T11:00:40.972Z,15.90
2023-05-05T11:03:17.116Z,15.80
2023-05-05T11:06:07.621Z,15.80
2023-05-05T11:08:35.934Z,15.80
2023-05-05T11:11:04.028Z,15.90
2023-05-05T11:13:31.475Z,15.90
2023-05-05T11:16:00.061Z,16.00
2023-05-05T11:18:35.964Z,16.00
2023-05-05T11:21:17.454Z,16.10
2023-05-05T11:23:49.803Z,16.00
2023-05-05T11:26:18.956Z,16.00
2023-05-05T11:29:03.575Z,15.90
2023-05-05T11:31:31.862Z,16.00
2023-05-05T11:34:25.772Z,16.00
2023-05-05T11:36:56.633Z,16.10
2023-05-05T11:39:32.858Z,16.10
2023-05-05T11:42:24.675Z,16.00
2023-05-05T11:44:52.351Z,15.90
2023-05-05T11:47:19.126Z,15.80
2023-05-05T11:49:45.968Z,15.80
2023-05-05T11:52:14.524Z,15.70
2023-05-05T11:54:50.480Z,15.70
2023-05-05T11:57:21.557Z,15.60
2023-05-05T11:59:59.988Z,15.50
2023-05-05T12:02:28.617Z,15.40
2023-05-05T12:04:56.596Z,15.40
2023-05-05T12:07:28.098Z,15.30
2023-05-05T12:09:55.354Z,15.20
2023-05-05T12:12:34.153Z,15.20
2023-05-05T12:15:01.086Z,15.20
2023-05-05T12:17:40.819Z,15.10
2023-05-05T12:20:09.319Z,15.10
2023-05-05T12:22:36.415Z,15.10
2023-05-05T12:25:05.442Z,15.20
2023-05-05T12:27:32.255Z,15.30
2023-05-05T12:30:11.818Z,15.30
2023-05-05T12:32:38.956Z,15.30
2023-05-05T12:35:07.843Z,15.30
2023-05-05T12:37:35.456Z,15.30
2023-05-05T12:40:02.239Z,15.40
2023-05-05T12:42:29.114Z,15.50
2023-05-05T12:44:55.996Z,15.60
2023-05-05T12:47:33.356Z,15.60
2023-05-05T12:50:02.929Z,15.60
2023-05-05T12:52:43.955Z,15.70
2023-05-05T12:55:11.541Z,15.80
2023-05-05T12:57:39.240Z,15.80
2023-05-05T13:00:17.697Z,15.90
2023-05-05T13:02:44.818Z,15.90
2023-05-05T13:05:11.961Z,15.80
2023-05-05T13:07:51.456Z,15.70
2023-05-05T13:10:18.553Z,15.60
2023-05-05T13:12:45.581Z,15.50
2023-05-05T13:15:12.796Z,15.40
2023-05-05T13:17:40.035Z,15.20
2023-05-05T13:20:09.753Z,15.10
2023-05-05T13:22:36.889Z,14.90
2023-05-05T13:25:03.952Z,14.90
2023-05-05T13:27:30.798Z,14.90
2023-05-05T13:29:57.690Z,14.90
2023-05-05T13:32:24.576Z,14.90
2023-05-05T13:34:51.479Z,15.00
2023-05-05T13:37:18.311Z,15.00
2023-05-05T13:39:45.136Z,15.10
2023-05-05T13:42:11.975Z,15.10
2023-05-05T13:44:39.404Z,15.20
2023-05-05T13:47:06.270Z,15.20
2023-05-05T13:49:33.724Z,15.20
2023-05-05T13:52:00.573Z,15.20
2023-05-05T13:54:28.051Z,15.20
2023-05-05T13:56:54.852Z,15.20
2023-05-05T13:59:21.834Z,15.30
2023-05-05T14:01:49.072Z,15.40
2023-05-05T14:04:16.143Z,15.50
2023-05-05T14:06:43.229Z,15.60
2023-05-05T14:09:10.277Z,15.80
2023-05-05T14:11:37.173Z,15.90
2023-05-05T14:14:04.040Z,16.00
2023-05-05T14:16:30.966Z,16.10
2023-05-05T14:18:58.011Z,16.30
2023-05-05T14:21:24.881Z,16.50
2023-05-05T14:23:51.678Z,16.70
2023-05-05T14:26:18.573Z,16.90
2023-05-05T14:28:46.771Z,17.20
2023-05-05T14:31:15.151Z,17.40
2023-05-05T14:33:41.975Z,17.60
2023-05-05T14:36:09.016Z,17.90
2023-05-05T14:38:36.067Z,18.10
2023-05-05T14:41:02.881Z,18.40
2023-05-05T14:43:29.718Z,18.60
2023-05-05T14:45:58.231Z,18.90
2023-05-05T14:48:25.118Z,19.10
2023-05-05T14:50:51.904Z,19.20
2023-05-05T14:53:21.428Z,19.30
2023-05-05T14:55:48.278Z,19.30
2023-05-05T14:58:15.198Z,19.00
2023-05-05T15:00:42.072Z,18.90
2023-05-05T15:03:08.982Z,18.80
2023-05-05T15:05:35.816Z,18.80
2023-05-05T15:08:02.643Z,19.00
2023-05-05T15:10:29.552Z,19.00
2023-05-05T15:12:56.462Z,19.00
2023-05-05T15:15:23.416Z,19.20
2023-05-05T15:17:50.260Z,19.60
2023-05-05T15:20:17.279Z,20.30
2023-05-05T15:22:44.043Z,20.90
2023-05-05T15:25:13.201Z,21.20
2023-05-05T15:27:40.362Z,21.20
2023-05-05T15:30:07.848Z,21.10
2023-05-05T15:32:34.671Z,21.00
2023-05-05T15:35:01.635Z,20.80
2023-05-05T15:37:28.961Z,20.60
2023-05-05T15:39:56.076Z,20.50
2023-05-05T15:42:22.896Z,20.50
2023-05-05T15:44:49.788Z,20.50
2023-05-05T15:47:16.686Z,20.60
2023-05-05T15:49:43.706Z,20.80
2023-05-05T15:52:11.586Z,21.30
2023-05-05T15:54:38.579Z,21.70
2023-05-05T15:57:05.451Z,22.10
2023-05-05T15:59:32.274Z,22.50
2023-05-05T16:01:59.162Z,22.70
2023-05-05T16:04:26.010Z,23.00
2023-05-05T16:06:53.473Z,23.20
2023-05-05T16:09:20.295Z,23.40
2023-05-05T16:11:47.437Z,23.60
2023-05-05T16:14:14.352Z,23.70
2023-05-05T16:16:41.339Z,23.50
2023-05-05T16:19:08.705Z,23.40
2023-05-05T16:21:35.588Z,23.30
2023-05-05T16:24:02.332Z,23.40
2023-05-05T16:26:29.204Z,23.70
2023-05-05T16:28:55.968Z,23.50
2023-05-05T16:31:23.061Z,23.30
2023-05-05T16:33:49.958Z,23.20
2023-05-05T16:36:16.859Z,23.30
2023-05-05T16:38:44.082Z,23.40
2023-05-05T16:41:11.217Z,23.50
2023-05-05T16:43:38.121Z,23.70
2023-05-05T16:46:06.063Z,23.80
2023-05-05T16:48:32.874Z,24.00
2023-05-05T16:50:59.817Z,24.20
2023-05-05T16:53:26.657Z,24.30
2023-05-05T16:55:53.964Z,24.30
2023-05-05T16:58:22.724Z,24.10
2023-05-05T17:00:50.307Z,23.40
2023-05-05T17:03:18.092Z,22.70
2023-05-05T17:05:49.036Z,22.30
2023-05-05T17:08:17.097Z,22.10
2023-05-05T17:10:45.287Z,22.10
2023-05-05T17:13:13.698Z,22.20
2023-05-05T17:15:41.372Z,22.40
2023-05-05T17:18:08.516Z,22.50
2023-05-05T17:20:36.310Z,22.70
2023-05-05T17:23:03.350Z,22.40
2023-05-05T17:25:30.343Z,22.00
2023-05-05T17:27:57.475Z,21.80
2023-05-05T17:30:24.484Z,21.60
2023-05-05T17:32:51.386Z,21.50
2023-05-05T17:35:18.545Z,21.70
2023-05-05T17:37:45.559Z,21.60
2023-05-05T17:40:12.721Z,21.50
2023-05-05T17:42:39.750Z,21.50
2023-05-05T17:45:07.973Z,21.50
2023-05-05T17:47:35.148Z,21.60
2023-05-05T17:50:02.120Z,21.70
2023-05-05T17:52:28.958Z,21.70
2023-05-05T17:54:55.875Z,21.70
2023-05-05T17:57:23.118Z,21.80
2023-05-05T17:59:51.821Z,22.00
2023-05-05T18:02:19.045Z,22.20
2023-05-05T18:04:46.491Z,22.50
2023-05-05T18:07:14.679Z,22.80
2023-05-05T18:09:42.198Z,23.20
2023-05-05T18:12:09.265Z,23.60
2023-05-05T18:14:36.344Z,23.60
2023-05-05T18:17:03.393Z,23.20
2023-05-05T18:19:30.527Z,22.30
2023-05-05T18:21:57.570Z,21.50
2023-05-05T18:24:24.686Z,20.70
2023-05-05T18:26:52.504Z,20.20
2023-05-05T18:29:21.663Z,19.80
2023-05-05T18:31:52.188Z,19.40
2023-05-05T18:34:20.590Z,19.00
2023-05-05T18:36:51.476Z,18.70
2023-05-05T18:39:18.356Z,18.50
2023-05-05T18:41:45.279Z,18.30
2023-05-05T18:44:12.243Z,18.20
2023-05-05T18:46:39.182Z,18.20
2023-05-05T18:49:06.285Z,18.10
2023-05-05T18:51:33.149Z,18.10
2023-05-05T18:54:01.058Z,18.00
2023-05-05T18:56:27.970Z,18.00
2023-05-05T18:58:54.897Z,17.90
2023-05-05T19:01:22.107Z,17.80
2023-05-05T19:03:49.751Z,17.80
2023-05-05T19:06:17.151Z,17.70
2023-05-05T19:08:45.126Z,17.60
2023-05-05T19:11:12.525Z,17.50
2023-05-05T19:13:39.892Z,17.50
2023-05-05T19:16:07.255Z,17.40
2023-05-05T19:18:34.128Z,17.30
2023-05-05T19:21:01.471Z,17.20
2023-05-05T19:23:28.380Z,17.10
2023-05-05T19:25:55.229Z,17.00
2023-05-05T19:28:22.113Z,16.90
2023-05-05T19:30:49.037Z,16.80
2023-05-05T19:33:16.324Z,16.80
2023-05-05T19:35:43.735Z,16.70
2023-05-05T19:38:10.986Z,16.60
2023-05-05T19:40:38.756Z,16.60
2023-05-05T19:43:05.689Z,16.50
2023-05-05T19:45:33.887Z,16.50
2023-05-05T19:48:01.610Z,16.40
2023-05-05T19:50:30.649Z,16.40
2023-05-05T19:52:58.149Z,16.30
2023-05-05T19:55:25.131Z,16.20
2023-05-05T19:57:52.055Z,16.20
2023-05-05T20:00:19.788Z,16.10
2023-05-05T20:02:47.300Z,16.00
2023-05-05T20:05:16.220Z,15.90
2023-05-05T20:07:43.900Z,15.90
2023-05-05T20:10:13.108Z,15.80
2023-05-05T20:12:47.344Z,15.70
2023-05-05T20:15:20.297Z,15.70
2023-05-05T20:17:47.942Z,15.60
2023-05-05T20:20:21.253Z,15.50
2023-05-05T20:22:49.326Z,15.40
2023-05-05T20:25:16.433Z,15.40
2023-05-05T20:27:43.714Z,15.30
2023-05-05T20:30:12.249Z,15.30
2023-05-05T20:32:39.313Z,15.30
2023-05-05T20:35:07.257Z,15.20
2023-05-05T20:37:34.082Z,15.20
2023-05-05T20:40:00.914Z,15.20
2023-05-05T20:42:28.030Z,15.20
2023-05-05T20:44:54.902Z,15.10
2023-05-05T20:47:21.690Z,15.10
2023-05-05T20:49:48.564Z,15.10
2023-05-05T20:52:15.692Z,15.10
2023-05-05T20:54:42.589Z,15.10
2023-05-05T20:57:09.920Z,15.10
2023-05-05T20:59:38.108Z,15.10
2023-05-05T21:02:04.939Z,15.00
2023-05-05T21:04:31.874Z,15.00
2023-05-05T21:06:58.697Z,14.90
2023-05-05T21:09:26.071Z,14.90
2023-05-05T21:11:52.999Z,14.90
2023-05-05T21:14:19.842Z,14.80
2023-05-05T21:16:46.780Z,14.80
2023-05-05T21:19:13.644Z,14.80
2023-05-05T21:21:40.519Z,14.70
2023-05-05T21:24:08.134Z,14.70
2023-05-05T21:26:35.125Z,14.60
2023-05-05T21:29:01.888Z,14.60
2023-05-05T21:31:28.840Z,14.60
2023-05-05T21:33:55.683Z,14.60
2023-05-05T21:36:22.599Z,14.60
2023-05-05T21:39:01.285Z,14.60
2023-05-05T21:41:28.365Z,14.60
2023-05-05T21:43:55.624Z,14.60
2023-05-05T21:46:22.578Z,14.60
2023-05-05T21:48:49.481Z,14.70
2023-05-05T21:51:16.416Z,14.70
2023-05-05T21:53:43.427Z,14.70
2023-05-05T21:56:10.303Z,14.70
2023-05-05T21:58:37.290Z,14.70
2023-05-05T22:01:04.150Z,14.70
2023-05-05T22:03:31.087Z,14.70
2023-05-05T22:05:57.980Z,14.60
2023-05-05T22:08:24.772Z,14.60
2023-05-05T22:10:52.139Z,14.50
2023-05-05T22:13:19.341Z,14.50
2023-05-05T22:15:47.382Z,14.40
2023-05-05T22:18:15.762Z,14.40
2023-05-05T22:20:43.568Z,14.40
2023-05-05T22:23:10.953Z,14.40
2023-05-05T22:25:38.372Z,14.40
2023-05-05T22:28:05.189Z,14.40
2023-05-05T22:30:32.158Z,14.30
2023-05-05T22:32:59.102Z,14.30
2023-05-05T22:35:25.929Z,14.30
2023-05-05T22:37:52.735Z,14.30
2023-05-05T22:40:19.624Z,14.30
2023-05-05T22:42:46.455Z,14.30
2023-05-05T22:45:13.759Z,14.30
2023-05-05T22:47:40.827Z,14.30
2023-05-05T22:50:08.285Z,14.30
2023-05-05T22:52:35.579Z,14.30
2023-05-05T22:55:03.461Z,14.30
2023-05-05T22:57:31.040Z,14.30
2023-05-05T22:59:58.560Z,14.30
2023-05-05T23:02:26.873Z,14.30
2023-05-05T23:04:53.879Z,14.30
2023-05-05T23:07:20.904Z,14.20
2023-05-05T23:09:47.967Z,14.20
2023-05-05T23:12:14.888Z,14.20
2023-05-05T23:14:41.830Z,14.10
2023-05-05T23:17:08.715Z,14.10
2023-05-05T23:19:36.030Z,14.10
2023-05-05T23:22:03.538Z,14.10
2023-05-05T23:24:30.905Z,14.10
2023-05-05T23:27:04.552Z,14.10
2023-05-05T23:29:31.772Z,14.10
2023-05-05T23:31:58.985Z,14.20
2023-05-05T23:34:26.809Z,14.20
2023-05-05T23:36:54.025Z,14.30
2023-05-05T23:39:20.945Z,14.30
2023-05-05T23:41:47.810Z,14.30
2023-05-05T23:44:14.676Z,14.40
2023-05-05T23:46:41.644Z,14.40
2023-05-05T23:49:08.632Z,14.50
2023-05-05T23:51:35.408Z,14.50
2023-05-05T23:54:02.226Z,14.50
2023-05-05T23:56:29.066Z,14.50
2023-05-05T23:58:56.239Z,14.50
